createdAt,value
2018-12-02T00:06:19.623Z,66.17
2018-12-02T00:14:40.690Z,67.10
2018-12-02T00:23:01.714Z,66.91
2018-12-02T00:31:22.704Z,66.53
2018-12-02T00:39:43.683Z,66.06
2018-12-02T00:48:04.690Z,66.34
2018-12-02T00:56:25.683Z,66.55
2018-12-02T01:04:46.750Z,67.94
2018-12-02T01:13:07.757Z,68.01
2018-12-02T01:21:28.760Z,68.47
2018-12-02T01:29:49.760Z,67.28
2018-12-02T01:38:10.786Z,68.33
2018-12-02T01:46:31.772Z,68.10
2018-12-02T01:54:52.775Z,67.75
2018-12-02T02:03:13.779Z,67.76
2018-12-02T02:11:34.802Z,67.56
2018-12-02T02:19:55.808Z,67.96
2018-12-02T02:28:16.835Z,67.45
2018-12-02T02:36:37.837Z,68.27
2018-12-02T02:44:58.820Z,68.89
2018-12-02T02:53:19.808Z,68.87
2018-12-02T03:01:40.792Z,68.39
2018-12-02T03:10:01.801Z,68.48
2018-12-02T03:18:22.816Z,70.00
2018-12-02T03:26:44.175Z,70.02
2018-12-02T03:35:05.179Z,70.82
2018-12-02T03:43:26.179Z,75.34
2018-12-02T03:51:47.186Z,78.39
2018-12-02T04:00:08.168Z,80.01
2018-12-02T04:08:29.161Z,81.71
2018-12-02T04:16:50.143Z,81.64
2018-12-02T04:25:11.148Z,81.83
2018-12-02T04:33:32.132Z,81.32
2018-12-02T04:41:53.154Z,81.45
2018-12-02T04:50:14.190Z,81.16
2018-12-02T04:58:35.195Z,81.59
2018-12-02T05:06:56.196Z,81.77
2018-12-02T05:15:17.206Z,81.58
2018-12-02T05:23:38.211Z,81.12
2018-12-02T05:31:59.214Z,82.42
2018-12-02T05:40:20.238Z,83.28
2018-12-02T05:48:41.251Z,84.14
2018-12-02T05:57:02.275Z,83.63
2018-12-02T06:05:23.302Z,82.94
2018-12-02T06:13:44.348Z,82.39
2018-12-02T06:22:05.542Z,80.63
2018-12-02T06:30:26.551Z,81.22
2018-12-02T06:38:47.610Z,80.49
2018-12-02T06:47:08.632Z,80.43
2018-12-02T06:55:29.676Z,81.85
2018-12-02T07:03:51.772Z,80.99
2018-12-02T07:12:12.810Z,81.40
2018-12-02T07:20:35.903Z,82.07
2018-12-02T07:28:57.134Z,81.15
2018-12-02T07:37:19.267Z,82.59
2018-12-02T07:45:40.348Z,82.83
2018-12-02T07:54:02.631Z,85.20
2018-12-02T08:02:23.776Z,84.62
2018-12-02T08:10:44.793Z,84.70
2018-12-02T08:19:06.066Z,83.53
2018-12-02T08:27:27.187Z,88.08
2018-12-02T08:35:48.476Z,85.22
2018-12-02T08:44:09.721Z,87.00
2018-12-02T08:52:30.965Z,86.12
2018-12-02T09:00:52.023Z,86.79
2018-12-02T09:09:13.052Z,91.69
2018-12-02T09:17:34.059Z,90.18
2018-12-02T09:25:55.141Z,89.18
2018-12-02T09:34:16.168Z,89.60
2018-12-02T09:42:37.863Z,87.81
2018-12-02T09:50:58.992Z,90.54
2018-12-02T09:59:19.993Z,86.30
2018-12-02T10:07:42.030Z,88.60
2018-12-02T10:16:03.078Z,88.33
2018-12-02T10:24:24.607Z,88.66
2018-12-02T10:32:45.628Z,85.74
2018-12-02T10:41:06.735Z,96.96
2018-12-02T10:55:27.273Z,100.00
2018-12-02T11:19:23.950Z,100.00
